Ewtrford, Pennsylvania
Current Conditions -  °F | °C
As of 6:53 PM on Saturday 25 Oct 2014 (Local Time) from KAOO Reporting Station
Broken Clouds Broken Clouds  
Wind Chill: 17°   Ceiling: 4200
Heat Index: 17°   Visibility: 10mi
Dew Point:   Wind: 12mph
Humidity: 60%   Direction: 250°WSW
Pressure: 29.74"   Gusts: 24mph
Location:  40.3617°N, 77.6745°W
Report Text: KAOO 252253Z AUTO 25010G21KT 10SM BKN042 17/09 A2974 RMK AO2 SLP070 T01670089
Loading
Personal Weather Stations






























Interactive Weather Map
Tropical Storm Tracking
New forecast layout! Learn more

10-Day Weather Forecast

Advertisements
Track Severe Weather on mobile